sensor_id;sensor_type;location;lat;lon;timestamp;P1;durP1;ratioP1;P2;durP2;ratioP2
34499;SDS011;20745;50.882;6.962;2023-03-01T00:01:35;21.27;;;7.43;;
34499;SDS011;20745;50.882;6.962;2023-03-01T00:04:02;19.02;;;8.05;;
34499;SDS011;20745;50.882;6.962;2023-03-01T00:06:28;23.95;;;8.38;;
34499;SDS011;20745;50.882;6.962;2023-03-01T00:08:55;22.88;;;7.82;;
34499;SDS011;20745;50.882;6.962;2023-03-01T00:11:23;22.65;;;8.60;;
34499;SDS011;20745;50.882;6.962;2023-03-01T00:13:52;19.10;;;7.68;;
34499;SDS011;20745;50.882;6.962;2023-03-01T00:16:34;17.73;;;6.72;;
34499;SDS011;20745;50.882;6.962;2023-03-01T00:19:13;15.63;;;6.90;;
34499;SDS011;20745;50.882;6.962;2023-03-01T00:21:41;20.27;;;7.32;;
34499;SDS011;20745;50.882;6.962;2023-03-01T00:24:08;19.38;;;7.20;;
34499;SDS011;20745;50.882;6.962;2023-03-01T00:26:35;19.08;;;7.43;;
34499;SDS011;20745;50.882;6.962;2023-03-01T00:29:03;20.98;;;7.18;;
34499;SDS011;20745;50.882;6.962;2023-03-01T00:31:30;22.08;;;8.45;;
34499;SDS011;20745;50.882;6.962;2023-03-01T00:33:59;23.55;;;9.07;;
34499;SDS011;20745;50.882;6.962;2023-03-01T00:36:29;24.67;;;8.23;;
34499;SDS011;20745;50.882;6.962;2023-03-01T00:38:59;19.80;;;7.90;;
34499;SDS011;20745;50.882;6.962;2023-03-01T00:41:26;20.73;;;7.53;;
34499;SDS011;20745;50.882;6.962;2023-03-01T00:43:53;20.83;;;7.75;;
34499;SDS011;20745;50.882;6.962;2023-03-01T00:46:21;18.27;;;7.53;;
34499;SDS011;20745;50.882;6.962;2023-03-01T00:48:50;20.23;;;8.13;;
34499;SDS011;20745;50.882;6.962;2023-03-01T00:51:21;19.73;;;8.40;;
34499;SDS011;20745;50.882;6.962;2023-03-01T00:53:55;19.70;;;8.23;;
34499;SDS011;20745;50.882;6.962;2023-03-01T00:56:23;20.13;;;8.15;;
34499;SDS011;20745;50.882;6.962;2023-03-01T00:58:50;18.67;;;7.65;;
34499;SDS011;20745;50.882;6.962;2023-03-01T01:01:21;19.58;;;7.80;;
34499;SDS011;20745;50.882;6.962;2023-03-01T01:03:51;20.50;;;7.75;;
34499;SDS011;20745;50.882;6.962;2023-03-01T01:06:27;18.73;;;7.75;;
34499;SDS011;20745;50.882;6.962;2023-03-01T01:09:02;19.23;;;8.50;;
34499;SDS011;20745;50.882;6.962;2023-03-01T01:11:30;18.35;;;7.65;;
34499;SDS011;20745;50.882;6.962;2023-03-01T01:13:57;18.50;;;7.40;;
34499;SDS011;20745;50.882;6.962;2023-03-01T01:16:24;18.40;;;7.70;;
34499;SDS011;20745;50.882;6.962;2023-03-01T01:18:52;19.70;;;5.78;;
34499;SDS011;20745;50.882;6.962;2023-03-01T01:21:20;20.63;;;8.27;;
34499;SDS011;20745;50.882;6.962;2023-03-01T01:26:16;17.85;;;7.63;;
34499;SDS011;20745;50.882;6.962;2023-03-01T01:28:47;22.55;;;7.45;;
34499;SDS011;20745;50.882;6.962;2023-03-01T01:31:14;20.30;;;7.22;;
34499;SDS011;20745;50.882;6.962;2023-03-01T01:33:41;18.20;;;7.88;;
34499;SDS011;20745;50.882;6.962;2023-03-01T01:36:08;25.73;;;7.97;;
34499;SDS011;20745;50.882;6.962;2023-03-01T01:38:35;19.92;;;7.47;;
34499;SDS011;20745;50.882;6.962;2023-03-01T01:41:03;20.35;;;7.10;;
34499;SDS011;20745;50.882;6.962;2023-03-01T01:43:36;19.83;;;7.57;;
34499;SDS011;20745;50.882;6.962;2023-03-01T01:46:12;21.88;;;8.10;;
34499;SDS011;20745;50.882;6.962;2023-03-01T01:48:52;20.02;;;8.32;;
34499;SDS011;20745;50.882;6.962;2023-03-01T01:51:25;21.23;;;8.27;;
34499;SDS011;20745;50.882;6.962;2023-03-01T01:54:06;20.27;;;8.32;;
34499;SDS011;20745;50.882;6.962;2023-03-01T01:56:38;18.17;;;7.10;;
34499;SDS011;20745;50.882;6.962;2023-03-01T01:59:07;20.30;;;7.05;;
34499;SDS011;20745;50.882;6.962;2023-03-01T02:01:33;19.45;;;7.68;;
34499;SDS011;20745;50.882;6.962;2023-03-01T02:04:00;18.88;;;7.65;;
34499;SDS011;20745;50.882;6.962;2023-03-01T02:09:11;19.83;;;7.75;;
34499;SDS011;20745;50.882;6.962;2023-03-01T02:11:39;19.63;;;7.63;;
34499;SDS011;20745;50.882;6.962;2023-03-01T02:14:06;20.17;;;7.35;;
34499;SDS011;20745;50.882;6.962;2023-03-01T02:16:33;19.02;;;6.97;;
34499;SDS011;20745;50.882;6.962;2023-03-01T02:19:00;18.50;;;7.47;;
34499;SDS011;20745;50.882;6.962;2023-03-01T02:26:54;20.27;;;7.15;;
34499;SDS011;20745;50.882;6.962;2023-03-01T02:29:22;20.10;;;7.30;;
34499;SDS011;20745;50.882;6.962;2023-03-01T02:31:50;14.50;;;5.85;;
34499;SDS011;20745;50.882;6.962;2023-03-01T02:34:20;20.25;;;7.85;;
34499;SDS011;20745;50.882;6.962;2023-03-01T02:36:50;19.17;;;7.15;;
34499;SDS011;20745;50.882;6.962;2023-03-01T02:39:22;20.52;;;7.47;;
34499;SDS011;20745;50.882;6.962;2023-03-01T02:41:53;20.35;;;7.50;;
34499;SDS011;20745;50.882;6.962;2023-03-01T02:44:22;20.80;;;8.23;;
34499;SDS011;20745;50.882;6.962;2023-03-01T02:46:50;21.55;;;8.00;;
34499;SDS011;20745;50.882;6.962;2023-03-01T02:49:23;19.10;;;7.28;;
34499;SDS011;20745;50.882;6.962;2023-03-01T02:57:07;22.90;;;9.65;;
34499;SDS011;20745;50.882;6.962;2023-03-01T02:59:35;19.85;;;7.63;;
34499;SDS011;20745;50.882;6.962;2023-03-01T03:02:07;18.50;;;6.97;;
34499;SDS011;20745;50.882;6.962;2023-03-01T03:04:46;20.40;;;7.43;;
34499;SDS011;20745;50.882;6.962;2023-03-01T03:07:13;21.00;;;7.75;;
34499;SDS011;20745;50.882;6.962;2023-03-01T03:09:40;22.65;;;8.85;;
34499;SDS011;20745;50.882;6.962;2023-03-01T03:12:06;21.10;;;7.45;;
34499;SDS011;20745;50.882;6.962;2023-03-01T03:14:33;26.27;;;8.38;;
34499;SDS011;20745;50.882;6.962;2023-03-01T03:17:01;19.77;;;7.85;;
34499;SDS011;20745;50.882;6.962;2023-03-01T03:19:28;19.92;;;7.97;;
34499;SDS011;20745;50.882;6.962;2023-03-01T03:21:55;21.55;;;7.03;;
34499;SDS011;20745;50.882;6.962;2023-03-01T03:24:21;18.40;;;7.70;;
34499;SDS011;20745;50.882;6.962;2023-03-01T03:26:48;20.02;;;7.75;;
34499;SDS011;20745;50.882;6.962;2023-03-01T03:29:14;20.60;;;7.40;;
34499;SDS011;20745;50.882;6.962;2023-03-01T03:31:41;19.38;;;7.32;;
34499;SDS011;20745;50.882;6.962;2023-03-01T03:34:07;21.48;;;8.25;;
34499;SDS011;20745;50.882;6.962;2023-03-01T03:36:34;20.92;;;7.95;;
34499;SDS011;20745;50.882;6.962;2023-03-01T03:39:00;18.95;;;7.32;;
34499;SDS011;20745;50.882;6.962;2023-03-01T03:41:27;20.23;;;8.75;;
34499;SDS011;20745;50.882;6.962;2023-03-01T03:43:53;18.92;;;7.82;;
34499;SDS011;20745;50.882;6.962;2023-03-01T03:46:20;20.67;;;7.60;;
34499;SDS011;20745;50.882;6.962;2023-03-01T03:48:47;22.10;;;8.23;;
34499;SDS011;20745;50.882;6.962;2023-03-01T03:51:14;19.85;;;8.20;;
34499;SDS011;20745;50.882;6.962;2023-03-01T03:53:42;22.20;;;8.75;;
34499;SDS011;20745;50.882;6.962;2023-03-01T03:56:09;21.17;;;8.07;;
34499;SDS011;20745;50.882;6.962;2023-03-01T03:58:37;19.63;;;7.53;;
34499;SDS011;20745;50.882;6.962;2023-03-01T04:01:04;22.05;;;8.38;;
34499;SDS011;20745;50.882;6.962;2023-03-01T04:03:31;20.65;;;8.07;;
34499;SDS011;20745;50.882;6.962;2023-03-01T04:05:58;18.17;;;7.70;;
34499;SDS011;20745;50.882;6.962;2023-03-01T04:08:26;21.77;;;8.55;;
34499;SDS011;20745;50.882;6.962;2023-03-01T04:10:56;19.48;;;7.53;;
34499;SDS011;20745;50.882;6.962;2023-03-01T04:13:26;21.83;;;8.65;;
34499;SDS011;20745;50.882;6.962;2023-03-01T04:15:53;19.67;;;8.32;;
34499;SDS011;20745;50.882;6.962;2023-03-01T04:18:21;21.45;;;8.90;;
34499;SDS011;20745;50.882;6.962;2023-03-01T04:20:49;24.08;;;8.88;;
34499;SDS011;20745;50.882;6.962;2023-03-01T04:23:18;22.25;;;8.80;;
34499;SDS011;20745;50.882;6.962;2023-03-01T04:25:53;20.95;;;8.55;;
34499;SDS011;20745;50.882;6.962;2023-03-01T04:28:32;23.63;;;8.60;;
34499;SDS011;20745;50.882;6.962;2023-03-01T04:33:46;21.60;;;8.43;;
34499;SDS011;20745;50.882;6.962;2023-03-01T04:36:15;23.63;;;8.20;;
34499;SDS011;20745;50.882;6.962;2023-03-01T04:38:43;20.90;;;8.70;;
34499;SDS011;20745;50.882;6.962;2023-03-01T04:41:14;24.75;;;9.05;;
34499;SDS011;20745;50.882;6.962;2023-03-01T04:46:11;28.50;;;9.38;;
34499;SDS011;20745;50.882;6.962;2023-03-01T04:48:41;19.05;;;8.07;;
34499;SDS011;20745;50.882;6.962;2023-03-01T04:51:09;24.00;;;8.80;;
34499;SDS011;20745;50.882;6.962;2023-03-01T04:53:39;24.40;;;8.93;;
34499;SDS011;20745;50.882;6.962;2023-03-01T04:56:06;23.77;;;8.73;;
34499;SDS011;20745;50.882;6.962;2023-03-01T04:58:33;23.33;;;8.88;;
34499;SDS011;20745;50.882;6.962;2023-03-01T05:01:11;25.17;;;8.35;;
34499;SDS011;20745;50.882;6.962;2023-03-01T05:03:46;21.15;;;8.38;;
34499;SDS011;20745;50.882;6.962;2023-03-01T05:06:14;21.60;;;8.40;;
34499;SDS011;20745;50.882;6.962;2023-03-01T05:08:42;21.63;;;8.55;;
34499;SDS011;20745;50.882;6.962;2023-03-01T05:11:09;19.73;;;8.32;;
34499;SDS011;20745;50.882;6.962;2023-03-01T05:13:36;21.83;;;9.13;;
34499;SDS011;20745;50.882;6.962;2023-03-01T05:16:04;22.60;;;8.85;;
34499;SDS011;20745;50.882;6.962;2023-03-01T05:18:33;18.88;;;7.55;;
34499;SDS011;20745;50.882;6.962;2023-03-01T05:21:04;23.35;;;9.35;;
34499;SDS011;20745;50.882;6.962;2023-03-01T05:23:32;24.13;;;9.80;;
34499;SDS011;20745;50.882;6.962;2023-03-01T05:25:59;21.20;;;9.52;;
34499;SDS011;20745;50.882;6.962;2023-03-01T05:28:27;25.38;;;9.98;;
34499;SDS011;20745;50.882;6.962;2023-03-01T05:30:54;20.73;;;8.75;;
34499;SDS011;20745;50.882;6.962;2023-03-01T05:33:22;24.13;;;9.05;;
34499;SDS011;20745;50.882;6.962;2023-03-01T05:35:49;22.50;;;9.48;;
34499;SDS011;20745;50.882;6.962;2023-03-01T05:38:16;18.88;;;8.05;;
34499;SDS011;20745;50.882;6.962;2023-03-01T05:40:43;25.33;;;8.88;;
34499;SDS011;20745;50.882;6.962;2023-03-01T05:43:12;21.05;;;7.85;;
34499;SDS011;20745;50.882;6.962;2023-03-01T05:45:40;23.50;;;9.30;;
34499;SDS011;20745;50.882;6.962;2023-03-01T05:48:08;25.38;;;9.40;;
34499;SDS011;20745;50.882;6.962;2023-03-01T05:50:37;21.63;;;9.00;;
34499;SDS011;20745;50.882;6.962;2023-03-01T05:53:13;23.17;;;9.88;;
34499;SDS011;20745;50.882;6.962;2023-03-01T05:55:43;26.83;;;9.80;;
34499;SDS011;20745;50.882;6.962;2023-03-01T05:58:14;24.02;;;9.52;;
34499;SDS011;20745;50.882;6.962;2023-03-01T06:00:44;23.05;;;8.95;;
34499;SDS011;20745;50.882;6.962;2023-03-01T06:03:12;24.63;;;10.30;;
34499;SDS011;20745;50.882;6.962;2023-03-01T06:05:40;25.52;;;10.18;;
34499;SDS011;20745;50.882;6.962;2023-03-01T06:08:08;22.42;;;9.95;;
34499;SDS011;20745;50.882;6.962;2023-03-01T06:10:36;20.85;;;9.05;;
34499;SDS011;20745;50.882;6.962;2023-03-01T06:13:02;26.75;;;10.48;;
34499;SDS011;20745;50.882;6.962;2023-03-01T06:15:29;23.52;;;9.88;;
34499;SDS011;20745;50.882;6.962;2023-03-01T06:17:55;26.20;;;9.48;;
34499;SDS011;20745;50.882;6.962;2023-03-01T06:20:26;28.00;;;10.48;;
34499;SDS011;20745;50.882;6.962;2023-03-01T06:25:21;23.38;;;10.27;;
34499;SDS011;20745;50.882;6.962;2023-03-01T06:27:49;30.25;;;10.93;;
34499;SDS011;20745;50.882;6.962;2023-03-01T06:30:19;23.17;;;10.77;;
34499;SDS011;20745;50.882;6.962;2023-03-01T06:32:47;23.67;;;10.35;;
34499;SDS011;20745;50.882;6.962;2023-03-01T06:35:14;28.88;;;11.68;;
34499;SDS011;20745;50.882;6.962;2023-03-01T06:37:44;27.42;;;10.77;;
34499;SDS011;20745;50.882;6.962;2023-03-01T06:40:11;25.77;;;10.23;;
34499;SDS011;20745;50.882;6.962;2023-03-01T06:42:40;20.35;;;7.95;;
34499;SDS011;20745;50.882;6.962;2023-03-01T06:45:10;24.38;;;10.05;;
34499;SDS011;20745;50.882;6.962;2023-03-01T06:47:37;27.00;;;10.18;;
34499;SDS011;20745;50.882;6.962;2023-03-01T06:50:04;27.55;;;11.80;;
34499;SDS011;20745;50.882;6.962;2023-03-01T06:52:30;25.08;;;11.10;;
34499;SDS011;20745;50.882;6.962;2023-03-01T06:54:57;25.58;;;11.70;;
34499;SDS011;20745;50.882;6.962;2023-03-01T06:57:24;25.38;;;11.48;;
34499;SDS011;20745;50.882;6.962;2023-03-01T06:59:50;22.38;;;10.55;;
34499;SDS011;20745;50.882;6.962;2023-03-01T07:02:17;24.02;;;10.45;;
34499;SDS011;20745;50.882;6.962;2023-03-01T07:04:44;29.45;;;11.57;;
34499;SDS011;20745;50.882;6.962;2023-03-01T07:07:11;28.92;;;11.65;;
34499;SDS011;20745;50.882;6.962;2023-03-01T07:09:37;29.58;;;11.45;;
34499;SDS011;20745;50.882;6.962;2023-03-01T07:12:04;27.73;;;11.93;;
34499;SDS011;20745;50.882;6.962;2023-03-01T07:14:31;27.23;;;11.95;;
34499;SDS011;20745;50.882;6.962;2023-03-01T07:16:57;29.70;;;12.15;;
34499;SDS011;20745;50.882;6.962;2023-03-01T07:19:24;28.00;;;12.25;;
34499;SDS011;20745;50.882;6.962;2023-03-01T07:21:50;31.23;;;12.77;;
34499;SDS011;20745;50.882;6.962;2023-03-01T07:24:17;26.42;;;11.90;;
34499;SDS011;20745;50.882;6.962;2023-03-01T07:26:43;29.23;;;12.40;;
34499;SDS011;20745;50.882;6.962;2023-03-01T07:29:10;25.02;;;10.98;;
34499;SDS011;20745;50.882;6.962;2023-03-01T07:31:37;26.02;;;11.25;;
34499;SDS011;20745;50.882;6.962;2023-03-01T07:34:03;25.70;;;12.32;;
34499;SDS011;20745;50.882;6.962;2023-03-01T07:36:30;30.77;;;11.20;;
34499;SDS011;20745;50.882;6.962;2023-03-01T07:38:57;27.00;;;11.60;;
34499;SDS011;20745;50.882;6.962;2023-03-01T07:41:24;29.70;;;12.35;;
34499;SDS011;20745;50.882;6.962;2023-03-01T07:43:50;27.88;;;12.18;;
34499;SDS011;20745;50.882;6.962;2023-03-01T07:46:17;27.38;;;12.73;;
34499;SDS011;20745;50.882;6.962;2023-03-01T07:48:45;32.28;;;12.43;;
34499;SDS011;20745;50.882;6.962;2023-03-01T07:51:12;28.25;;;14.15;;
34499;SDS011;20745;50.882;6.962;2023-03-01T07:53:38;30.73;;;14.10;;
34499;SDS011;20745;50.882;6.962;2023-03-01T07:56:06;29.90;;;13.27;;
34499;SDS011;20745;50.882;6.962;2023-03-01T07:58:37;31.08;;;13.70;;
34499;SDS011;20745;50.882;6.962;2023-03-01T08:01:06;29.90;;;13.48;;
34499;SDS011;20745;50.882;6.962;2023-03-01T08:03:34;30.63;;;14.45;;
34499;SDS011;20745;50.882;6.962;2023-03-01T08:06:03;33.13;;;14.00;;
34499;SDS011;20745;50.882;6.962;2023-03-01T08:08:31;30.55;;;13.88;;
34499;SDS011;20745;50.882;6.962;2023-03-01T08:10:59;34.22;;;14.38;;
34499;SDS011;20745;50.882;6.962;2023-03-01T08:13:27;29.87;;;13.77;;
34499;SDS011;20745;50.882;6.962;2023-03-01T08:15:53;30.42;;;14.32;;
34499;SDS011;20745;50.882;6.962;2023-03-01T08:18:20;35.67;;;15.55;;
34499;SDS011;20745;50.882;6.962;2023-03-01T08:20:47;32.40;;;14.20;;
34499;SDS011;20745;50.882;6.962;2023-03-01T08:23:14;31.20;;;13.68;;
34499;SDS011;20745;50.882;6.962;2023-03-01T08:25:41;30.48;;;14.82;;
34499;SDS011;20745;50.882;6.962;2023-03-01T08:28:07;30.77;;;14.18;;
34499;SDS011;20745;50.882;6.962;2023-03-01T08:30:34;32.15;;;14.30;;
34499;SDS011;20745;50.882;6.962;2023-03-01T08:33:01;31.10;;;13.85;;
34499;SDS011;20745;50.882;6.962;2023-03-01T08:35:27;29.58;;;14.77;;
34499;SDS011;20745;50.882;6.962;2023-03-01T08:37:54;29.98;;;14.68;;
34499;SDS011;20745;50.882;6.962;2023-03-01T08:40:20;32.10;;;14.57;;
34499;SDS011;20745;50.882;6.962;2023-03-01T08:42:47;30.45;;;13.98;;
34499;SDS011;20745;50.882;6.962;2023-03-01T08:45:13;29.45;;;13.43;;
34499;SDS011;20745;50.882;6.962;2023-03-01T08:47:44;27.30;;;13.65;;
34499;SDS011;20745;50.882;6.962;2023-03-01T08:50:11;28.80;;;13.15;;
34499;SDS011;20745;50.882;6.962;2023-03-01T08:52:38;28.33;;;13.25;;
34499;SDS011;20745;50.882;6.962;2023-03-01T08:55:04;29.92;;;13.10;;
34499;SDS011;20745;50.882;6.962;2023-03-01T08:57:32;28.40;;;14.13;;
34499;SDS011;20745;50.882;6.962;2023-03-01T08:59:58;32.22;;;13.70;;
34499;SDS011;20745;50.882;6.962;2023-03-01T09:02:25;31.85;;;13.35;;
34499;SDS011;20745;50.882;6.962;2023-03-01T09:04:51;33.08;;;14.63;;
34499;SDS011;20745;50.882;6.962;2023-03-01T09:07:18;26.85;;;13.15;;
34499;SDS011;20745;50.882;6.962;2023-03-01T09:09:44;31.00;;;13.73;;
34499;SDS011;20745;50.882;6.962;2023-03-01T09:12:11;28.50;;;12.73;;
34499;SDS011;20745;50.882;6.962;2023-03-01T09:14:37;32.67;;;13.88;;
34499;SDS011;20745;50.882;6.962;2023-03-01T09:17:04;27.90;;;12.90;;
34499;SDS011;20745;50.882;6.962;2023-03-01T09:19:31;25.02;;;12.73;;
34499;SDS011;20745;50.882;6.962;2023-03-01T09:21:57;26.45;;;12.45;;
34499;SDS011;20745;50.882;6.962;2023-03-01T09:24:24;28.08;;;12.80;;
34499;SDS011;20745;50.882;6.962;2023-03-01T09:26:55;27.27;;;12.13;;
34499;SDS011;20745;50.882;6.962;2023-03-01T09:29:22;27.83;;;11.23;;
34499;SDS011;20745;50.882;6.962;2023-03-01T09:31:49;23.80;;;11.38;;
34499;SDS011;20745;50.882;6.962;2023-03-01T09:34:15;24.75;;;11.25;;
34499;SDS011;20745;50.882;6.962;2023-03-01T09:36:45;25.23;;;10.50;;
34499;SDS011;20745;50.882;6.962;2023-03-01T09:39:12;28.70;;;11.63;;
34499;SDS011;20745;50.882;6.962;2023-03-01T09:41:43;27.35;;;11.05;;
34499;SDS011;20745;50.882;6.962;2023-03-01T09:44:33;26.75;;;11.93;;
34499;SDS011;20745;50.882;6.962;2023-03-01T09:47:09;25.50;;;11.90;;
34499;SDS011;20745;50.882;6.962;2023-03-01T09:49:43;23.35;;;11.52;;
34499;SDS011;20745;50.882;6.962;2023-03-01T09:55:12;27.67;;;11.82;;
34499;SDS011;20745;50.882;6.962;2023-03-01T09:57:48;25.67;;;11.25;;
34499;SDS011;20745;50.882;6.962;2023-03-01T10:00:22;28.65;;;11.80;;
34499;SDS011;20745;50.882;6.962;2023-03-01T10:06:19;28.45;;;11.30;;
34499;SDS011;20745;50.882;6.962;2023-03-01T10:09:10;25.60;;;10.73;;
34499;SDS011;20745;50.882;6.962;2023-03-01T10:14:24;24.90;;;11.35;;
34499;SDS011;20745;50.882;6.962;2023-03-01T10:17:03;25.75;;;11.07;;
34499;SDS011;20745;50.882;6.962;2023-03-01T10:19:44;25.33;;;11.15;;
34499;SDS011;20745;50.882;6.962;2023-03-01T10:22:27;26.05;;;11.18;;
34499;SDS011;20745;50.882;6.962;2023-03-01T10:24:56;26.13;;;11.15;;
34499;SDS011;20745;50.882;6.962;2023-03-01T10:27:25;23.95;;;11.40;;
34499;SDS011;20745;50.882;6.962;2023-03-01T10:33:00;27.73;;;11.55;;
34499;SDS011;20745;50.882;6.962;2023-03-01T10:35:29;24.98;;;11.02;;
34499;SDS011;20745;50.882;6.962;2023-03-01T10:40:31;23.83;;;11.23;;
34499;SDS011;20745;50.882;6.962;2023-03-01T10:42:59;22.80;;;10.70;;
34499;SDS011;20745;50.882;6.962;2023-03-01T10:50:47;25.95;;;10.82;;
34499;SDS011;20745;50.882;6.962;2023-03-01T10:53:37;23.40;;;10.38;;
34499;SDS011;20745;50.882;6.962;2023-03-01T10:56:09;24.83;;;11.23;;
34499;SDS011;20745;50.882;6.962;2023-03-01T10:58:56;24.05;;;10.32;;
34499;SDS011;20745;50.882;6.962;2023-03-01T11:01:29;24.80;;;10.15;;
34499;SDS011;20745;50.882;6.962;2023-03-01T11:06:35;24.92;;;10.65;;
34499;SDS011;20745;50.882;6.962;2023-03-01T11:09:20;22.40;;;10.50;;
34499;SDS011;20745;50.882;6.962;2023-03-01T11:11:52;23.77;;;10.30;;
34499;SDS011;20745;50.882;6.962;2023-03-01T11:22:44;22.38;;;9.98;;
34499;SDS011;20745;50.882;6.962;2023-03-01T11:25:14;26.33;;;11.07;;
34499;SDS011;20745;50.882;6.962;2023-03-01T11:27:43;24.30;;;10.07;;
34499;SDS011;20745;50.882;6.962;2023-03-01T11:30:19;25.05;;;10.98;;
34499;SDS011;20745;50.882;6.962;2023-03-01T11:36:05;25.60;;;11.20;;
34499;SDS011;20745;50.882;6.962;2023-03-01T11:38:38;33.22;;;10.55;;
34499;SDS011;20745;50.882;6.962;2023-03-01T11:41:13;24.95;;;10.07;;
34499;SDS011;20745;50.882;6.962;2023-03-01T11:43:51;22.77;;;9.90;;
34499;SDS011;20745;50.882;6.962;2023-03-01T11:54:36;22.88;;;10.05;;
34499;SDS011;20745;50.882;6.962;2023-03-01T11:57:33;26.48;;;9.82;;
34499;SDS011;20745;50.882;6.962;2023-03-01T12:00:28;23.90;;;9.60;;
34499;SDS011;20745;50.882;6.962;2023-03-01T12:11:54;23.77;;;9.15;;
34499;SDS011;20745;50.882;6.962;2023-03-01T12:14:51;16.02;;;6.35;;
34499;SDS011;20745;50.882;6.962;2023-03-01T12:28:48;23.42;;;9.70;;
34499;SDS011;20745;50.882;6.962;2023-03-01T12:50:12;20.67;;;8.77;;
34499;SDS011;20745;50.882;6.962;2023-03-01T12:52:47;23.77;;;9.77;;
34499;SDS011;20745;50.882;6.962;2023-03-01T12:55:31;24.05;;;9.43;;
34499;SDS011;20745;50.882;6.962;2023-03-01T12:58:08;24.10;;;9.57;;
34499;SDS011;20745;50.882;6.962;2023-03-01T13:06:35;22.08;;;9.57;;
34499;SDS011;20745;50.882;6.962;2023-03-01T13:09:22;19.80;;;8.73;;
34499;SDS011;20745;50.882;6.962;2023-03-01T13:11:57;22.25;;;9.45;;
34499;SDS011;20745;50.882;6.962;2023-03-01T13:16:53;22.15;;;8.82;;
34499;SDS011;20745;50.882;6.962;2023-03-01T13:19:21;23.20;;;9.25;;
34499;SDS011;20745;50.882;6.962;2023-03-01T13:21:51;22.65;;;9.43;;
34499;SDS011;20745;50.882;6.962;2023-03-01T13:24:30;21.20;;;8.95;;
34499;SDS011;20745;50.882;6.962;2023-03-01T13:29:47;21.35;;;8.98;;
34499;SDS011;20745;50.882;6.962;2023-03-01T13:32:28;19.40;;;7.85;;
34499;SDS011;20745;50.882;6.962;2023-03-01T13:37:40;20.00;;;8.07;;
34499;SDS011;20745;50.882;6.962;2023-03-01T13:42:48;19.52;;;7.47;;
34499;SDS011;20745;50.882;6.962;2023-03-01T13:50:45;20.02;;;7.85;;
34499;SDS011;20745;50.882;6.962;2023-03-01T13:53:16;19.60;;;8.45;;
34499;SDS011;20745;50.882;6.962;2023-03-01T13:55:46;19.38;;;8.20;;
34499;SDS011;20745;50.882;6.962;2023-03-01T13:58:23;21.50;;;8.15;;
34499;SDS011;20745;50.882;6.962;2023-03-01T14:00:55;17.17;;;7.68;;
34499;SDS011;20745;50.882;6.962;2023-03-01T14:03:40;19.65;;;8.07;;
34499;SDS011;20745;50.882;6.962;2023-03-01T14:06:09;19.52;;;8.63;;
34499;SDS011;20745;50.882;6.962;2023-03-01T14:09:16;19.40;;;8.00;;
34499;SDS011;20745;50.882;6.962;2023-03-01T14:14:45;18.92;;;7.28;;
34499;SDS011;20745;50.882;6.962;2023-03-01T14:20:38;19.05;;;8.75;;
34499;SDS011;20745;50.882;6.962;2023-03-01T14:23:11;20.52;;;8.10;;
34499;SDS011;20745;50.882;6.962;2023-03-01T14:25:48;22.60;;;8.23;;
34499;SDS011;20745;50.882;6.962;2023-03-01T14:30:47;18.87;;;7.23;;
34499;SDS011;20745;50.882;6.962;2023-03-01T14:33:25;18.20;;;7.47;;
34499;SDS011;20745;50.882;6.962;2023-03-01T14:35:59;18.67;;;7.53;;
34499;SDS011;20745;50.882;6.962;2023-03-01T14:38:32;18.55;;;7.18;;
34499;SDS011;20745;50.882;6.962;2023-03-01T14:41:03;18.63;;;6.80;;
34499;SDS011;20745;50.882;6.962;2023-03-01T14:43:46;16.65;;;6.82;;
34499;SDS011;20745;50.882;6.962;2023-03-01T14:46:17;17.73;;;7.28;;
34499;SDS011;20745;50.882;6.962;2023-03-01T14:48:49;22.30;;;7.72;;
34499;SDS011;20745;50.882;6.962;2023-03-01T14:51:17;17.80;;;6.78;;
34499;SDS011;20745;50.882;6.962;2023-03-01T14:53:43;17.48;;;6.57;;
34499;SDS011;20745;50.882;6.962;2023-03-01T14:56:16;17.70;;;6.65;;
34499;SDS011;20745;50.882;6.962;2023-03-01T14:58:43;18.92;;;6.75;;
34499;SDS011;20745;50.882;6.962;2023-03-01T15:01:12;20.13;;;6.93;;
34499;SDS011;20745;50.882;6.962;2023-03-01T15:03:42;19.13;;;7.63;;
34499;SDS011;20745;50.882;6.962;2023-03-01T15:06:20;21.25;;;8.18;;
34499;SDS011;20745;50.882;6.962;2023-03-01T15:08:49;18.92;;;7.80;;
34499;SDS011;20745;50.882;6.962;2023-03-01T15:11:27;18.85;;;7.78;;
34499;SDS011;20745;50.882;6.962;2023-03-01T15:13:56;19.88;;;7.63;;
34499;SDS011;20745;50.882;6.962;2023-03-01T15:16:29;19.88;;;7.72;;
34499;SDS011;20745;50.882;6.962;2023-03-01T15:18:59;21.80;;;7.68;;
34499;SDS011;20745;50.882;6.962;2023-03-01T15:21:32;20.75;;;8.00;;
34499;SDS011;20745;50.882;6.962;2023-03-01T15:24:08;21.52;;;7.75;;
34499;SDS011;20745;50.882;6.962;2023-03-01T15:26:51;19.08;;;7.80;;
34499;SDS011;20745;50.882;6.962;2023-03-01T15:29:25;22.17;;;8.00;;
34499;SDS011;20745;50.882;6.962;2023-03-01T15:31:57;23.17;;;8.30;;
34499;SDS011;20745;50.882;6.962;2023-03-01T15:34:34;20.90;;;7.22;;
34499;SDS011;20745;50.882;6.962;2023-03-01T15:37:04;23.67;;;7.35;;
34499;SDS011;20745;50.882;6.962;2023-03-01T15:39:37;22.90;;;8.18;;
34499;SDS011;20745;50.882;6.962;2023-03-01T15:42:09;25.83;;;8.27;;
34499;SDS011;20745;50.882;6.962;2023-03-01T15:45:20;25.77;;;7.85;;
34499;SDS011;20745;50.882;6.962;2023-03-01T15:47:50;18.95;;;7.80;;
34499;SDS011;20745;50.882;6.962;2023-03-01T15:50:20;22.17;;;8.07;;
34499;SDS011;20745;50.882;6.962;2023-03-01T15:52:50;22.55;;;8.20;;
34499;SDS011;20745;50.882;6.962;2023-03-01T15:55:21;20.70;;;7.28;;
34499;SDS011;20745;50.882;6.962;2023-03-01T15:58:15;19.63;;;7.00;;
34499;SDS011;20745;50.882;6.962;2023-03-01T16:03:26;17.80;;;7.20;;
34499;SDS011;20745;50.882;6.962;2023-03-01T16:05:53;19.38;;;7.53;;
34499;SDS011;20745;50.882;6.962;2023-03-01T16:08:20;16.05;;;7.03;;
34499;SDS011;20745;50.882;6.962;2023-03-01T16:10:46;18.70;;;6.93;;
34499;SDS011;20745;50.882;6.962;2023-03-01T16:13:15;17.77;;;7.07;;
34499;SDS011;20745;50.882;6.962;2023-03-01T16:15:43;18.73;;;7.88;;
34499;SDS011;20745;50.882;6.962;2023-03-01T16:18:10;19.17;;;7.00;;
34499;SDS011;20745;50.882;6.962;2023-03-01T16:20:37;18.15;;;6.72;;
34499;SDS011;20745;50.882;6.962;2023-03-01T16:23:05;23.17;;;7.45;;
34499;SDS011;20745;50.882;6.962;2023-03-01T16:25:33;20.83;;;7.50;;
34499;SDS011;20745;50.882;6.962;2023-03-01T16:28:01;20.63;;;7.28;;
34499;SDS011;20745;50.882;6.962;2023-03-01T16:30:31;21.88;;;7.60;;
34499;SDS011;20745;50.882;6.962;2023-03-01T16:32:57;24.00;;;7.65;;
34499;SDS011;20745;50.882;6.962;2023-03-01T16:35:25;19.88;;;7.28;;
34499;SDS011;20745;50.882;6.962;2023-03-01T16:37:51;19.95;;;6.97;;
34499;SDS011;20745;50.882;6.962;2023-03-01T16:40:24;19.77;;;6.75;;
34499;SDS011;20745;50.882;6.962;2023-03-01T16:42:53;24.75;;;7.47;;
34499;SDS011;20745;50.882;6.962;2023-03-01T16:45:33;17.42;;;6.97;;
34499;SDS011;20745;50.882;6.962;2023-03-01T16:48:02;16.48;;;6.65;;
34499;SDS011;20745;50.882;6.962;2023-03-01T16:50:29;19.95;;;6.72;;
34499;SDS011;20745;50.882;6.962;2023-03-01T16:52:56;17.90;;;6.50;;
34499;SDS011;20745;50.882;6.962;2023-03-01T16:55:22;19.80;;;7.13;;
34499;SDS011;20745;50.882;6.962;2023-03-01T16:57:49;18.65;;;6.20;;
34499;SDS011;20745;50.882;6.962;2023-03-01T17:00:17;17.40;;;6.45;;
34499;SDS011;20745;50.882;6.962;2023-03-01T17:02:44;17.98;;;6.63;;
34499;SDS011;20745;50.882;6.962;2023-03-01T17:05:10;20.52;;;6.50;;
34499;SDS011;20745;50.882;6.962;2023-03-01T17:07:38;20.02;;;7.03;;